createdAt,value
2022-11-24T00:02:23.220Z,99.41
2022-11-24T00:04:47.038Z,100.00
2022-11-24T00:07:10.684Z,100.00
2022-11-24T00:09:34.332Z,100.00
2022-11-24T00:11:57.950Z,100.00
2022-11-24T00:14:21.580Z,100.00
2022-11-24T00:16:46.529Z,100.00
2022-11-24T00:19:15.761Z,100.00
2022-11-24T00:21:42.038Z,100.00
2022-11-24T00:24:06.427Z,100.00
2022-11-24T00:26:32.130Z,100.00
2022-11-24T00:29:02.230Z,100.00
2022-11-24T00:31:28.135Z,100.00
2022-11-24T00:33:54.771Z,100.00
2022-11-24T00:36:20.046Z,100.00
2022-11-24T00:38:43.805Z,100.00
2022-11-24T00:41:07.738Z,100.00
2022-11-24T00:43:31.299Z,99.94
2022-11-24T00:45:55.083Z,99.80
2022-11-24T00:48:18.750Z,99.79
2022-11-24T00:50:43.807Z,99.20
2022-11-24T00:53:07.438Z,99.64
2022-11-24T00:55:31.123Z,99.98
2022-11-24T00:57:54.680Z,100.00
2022-11-24T01:00:19.726Z,100.00
2022-11-24T01:02:43.315Z,100.00
2022-11-24T01:05:07.873Z,100.00
2022-11-24T01:07:32.856Z,100.00
2022-11-24T01:09:56.633Z,100.00
2022-11-24T01:12:20.158Z,100.00
2022-11-24T01:14:43.878Z,99.98
2022-11-24T01:17:07.422Z,100.00
2022-11-24T01:19:31.009Z,100.00
2022-11-24T01:21:54.656Z,100.00
2022-11-24T01:24:19.975Z,99.54
2022-11-24T01:26:43.670Z,98.62
2022-11-24T01:29:07.426Z,100.00
2022-11-24T01:31:30.966Z,100.00
2022-11-24T01:33:55.273Z,99.61
2022-11-24T01:36:19.069Z,99.25
2022-11-24T01:38:42.801Z,98.67
2022-11-24T01:41:11.334Z,98.56
2022-11-24T01:43:35.595Z,98.91
2022-11-24T01:46:03.838Z,98.88
2022-11-24T01:48:32.542Z,98.77
2022-11-24T01:51:03.615Z,99.16
2022-11-24T01:53:27.554Z,99.21
2022-11-24T01:55:53.038Z,99.66
2022-11-24T01:58:23.574Z,99.70
2022-11-24T02:00:48.026Z,100.00
2022-11-24T02:03:13.255Z,100.00
2022-11-24T02:05:45.036Z,100.00
2022-11-24T02:08:17.990Z,100.00
2022-11-24T02:10:41.580Z,99.60
2022-11-24T02:13:06.031Z,100.00
2022-11-24T02:15:31.452Z,99.73
2022-11-24T02:17:55.102Z,99.93
2022-11-24T02:20:19.590Z,99.18
2022-11-24T02:22:54.242Z,99.89
2022-11-24T02:25:31.336Z,98.34
2022-11-24T02:27:58.430Z,99.36
2022-11-24T02:30:22.307Z,98.80
2022-11-24T02:32:46.031Z,98.95
2022-11-24T02:35:11.918Z,99.14
2022-11-24T02:37:35.542Z,98.75
2022-11-24T02:39:59.073Z,98.09
2022-11-24T02:42:23.199Z,96.64
2022-11-24T02:44:54.402Z,95.56
2022-11-24T02:47:18.377Z,95.74
2022-11-24T02:49:41.980Z,97.21
2022-11-24T02:52:06.310Z,97.99
2022-11-24T02:54:30.050Z,98.96
2022-11-24T02:56:54.195Z,97.14
2022-11-24T02:59:17.759Z,98.67
2022-11-24T03:01:42.764Z,98.51
2022-11-24T03:04:06.523Z,97.36
2022-11-24T03:06:30.185Z,97.20
2022-11-24T03:08:53.736Z,96.81
2022-11-24T03:11:17.348Z,96.89
2022-11-24T03:13:40.926Z,98.39
2022-11-24T03:16:04.628Z,97.39
2022-11-24T03:18:29.611Z,97.59
2022-11-24T03:20:53.206Z,97.00
2022-11-24T03:23:16.772Z,97.66
2022-11-24T03:25:40.567Z,97.74
2022-11-24T03:28:04.278Z,97.08
2022-11-24T03:30:28.231Z,96.28
2022-11-24T03:32:53.547Z,96.44
2022-11-24T03:35:18.670Z,97.30
2022-11-24T03:37:42.330Z,96.77
2022-11-24T03:40:07.454Z,97.41
2022-11-24T03:42:31.026Z,97.45
2022-11-24T03:44:54.622Z,96.60
2022-11-24T03:47:18.222Z,95.91
2022-11-24T03:49:42.388Z,97.85
2022-11-24T03:52:08.358Z,96.43
2022-11-24T03:54:32.341Z,95.12
2022-11-24T03:56:56.157Z,95.47
2022-11-24T03:59:19.750Z,95.61
2022-11-24T04:01:43.382Z,96.34
2022-11-24T04:04:07.276Z,96.67
2022-11-24T04:06:30.857Z,96.72
2022-11-24T04:08:55.834Z,96.80
2022-11-24T04:11:33.218Z,97.32
2022-11-24T04:13:56.814Z,96.76
2022-11-24T04:16:20.389Z,96.81
2022-11-24T04:18:44.100Z,96.22
2022-11-24T04:21:07.764Z,96.83
2022-11-24T04:23:31.352Z,96.47
2022-11-24T04:25:56.243Z,95.94
2022-11-24T04:28:19.870Z,97.57
2022-11-24T04:30:45.064Z,97.51
2022-11-24T04:33:08.924Z,97.74
2022-11-24T04:35:32.499Z,97.34
2022-11-24T04:37:56.139Z,97.15
2022-11-24T04:40:20.443Z,96.22
2022-11-24T04:42:45.463Z,96.96
2022-11-24T04:45:10.057Z,96.47
2022-11-24T04:47:34.159Z,95.53
2022-11-24T04:49:57.748Z,94.42
2022-11-24T04:52:23.843Z,95.29
2022-11-24T04:54:47.635Z,95.77
2022-11-24T04:57:17.523Z,95.82
2022-11-24T04:59:42.495Z,96.84
2022-11-24T05:02:06.136Z,96.09
2022-11-24T05:04:29.992Z,97.08
2022-11-24T05:06:53.659Z,97.99
2022-11-24T05:09:18.742Z,98.36
2022-11-24T05:11:41.292Z,97.88
2022-11-24T05:14:04.866Z,97.50
2022-11-24T05:16:29.881Z,97.94
2022-11-24T05:18:53.445Z,98.30
2022-11-24T05:21:17.088Z,97.29
2022-11-24T05:23:40.642Z,96.63
2022-11-24T05:26:05.129Z,97.65
2022-11-24T05:28:29.132Z,97.34
2022-11-24T05:30:52.670Z,96.27
2022-11-24T05:33:19.264Z,95.80
2022-11-24T05:35:42.929Z,94.74
2022-11-24T05:38:06.599Z,94.51
2022-11-24T05:40:30.361Z,93.78
2022-11-24T05:42:53.888Z,94.52
2022-11-24T05:45:20.447Z,93.84
2022-11-24T05:47:44.361Z,94.97
2022-11-24T05:50:11.454Z,95.09
2022-11-24T05:52:35.188Z,94.90
2022-11-24T05:54:58.763Z,95.09
2022-11-24T05:57:22.297Z,94.39
2022-11-24T05:59:46.198Z,95.12
2022-11-24T06:02:10.321Z,95.34
2022-11-24T06:04:34.379Z,95.32
2022-11-24T06:06:59.546Z,95.69
2022-11-24T06:09:23.115Z,96.72
2022-11-24T06:11:48.291Z,95.95
2022-11-24T06:14:12.059Z,94.89
2022-11-24T06:16:35.703Z,93.83
2022-11-24T06:18:59.379Z,94.36
2022-11-24T06:21:22.910Z,95.42
2022-11-24T06:23:49.329Z,96.04
2022-11-24T06:26:12.902Z,95.67
2022-11-24T06:28:36.819Z,95.49
2022-11-24T06:31:03.781Z,96.24
2022-11-24T06:33:28.584Z,97.93
2022-11-24T06:35:52.150Z,97.20
2022-11-24T06:38:20.118Z,96.28
2022-11-24T06:40:49.093Z,95.48
2022-11-24T06:43:12.587Z,95.07
2022-11-24T06:45:36.261Z,94.78
2022-11-24T06:47:59.804Z,94.99
2022-11-24T06:50:23.648Z,95.87
2022-11-24T06:52:47.210Z,94.91
2022-11-24T06:55:11.131Z,95.41
2022-11-24T06:57:36.267Z,95.05
2022-11-24T07:00:00.074Z,94.34
2022-11-24T07:02:23.620Z,95.00
2022-11-24T07:04:47.211Z,96.09
2022-11-24T07:07:10.843Z,96.43
2022-11-24T07:09:34.488Z,95.18
2022-11-24T07:11:58.016Z,95.30
2022-11-24T07:14:23.250Z,96.14
2022-11-24T07:16:46.817Z,95.96
2022-11-24T07:19:11.439Z,95.85
2022-11-24T07:21:34.986Z,95.45
2022-11-24T07:23:59.656Z,96.09
2022-11-24T07:26:23.639Z,95.95
2022-11-24T07:28:47.386Z,95.76
2022-11-24T07:31:14.985Z,95.78
2022-11-24T07:33:38.909Z,97.80
2022-11-24T07:36:03.331Z,96.29
2022-11-24T07:38:26.932Z,96.35
2022-11-24T07:40:50.568Z,95.29
2022-11-24T07:43:19.845Z,95.23
2022-11-24T07:45:45.603Z,95.59
2022-11-24T07:48:11.877Z,95.16
2022-11-24T07:50:35.759Z,95.16
2022-11-24T07:53:03.458Z,95.76
2022-11-24T07:55:27.059Z,95.04
2022-11-24T07:57:50.604Z,94.57
2022-11-24T08:00:15.458Z,94.43
2022-11-24T08:02:39.230Z,93.81
2022-11-24T08:05:04.229Z,95.13
2022-11-24T08:07:27.860Z,94.82
2022-11-24T08:09:52.216Z,94.10
2022-11-24T08:12:17.531Z,95.32
2022-11-24T08:14:41.074Z,95.49
2022-11-24T08:17:04.752Z,94.66
2022-11-24T08:19:28.349Z,93.83
2022-11-24T08:21:53.320Z,95.66
2022-11-24T08:24:17.161Z,95.15
2022-11-24T08:26:40.696Z,95.17
2022-11-24T08:29:04.300Z,94.83
2022-11-24T08:31:33.529Z,94.57
2022-11-24T08:33:57.763Z,94.16
2022-11-24T08:36:21.523Z,93.83
2022-11-24T08:38:47.257Z,93.86
2022-11-24T08:41:12.705Z,93.76
2022-11-24T08:43:37.105Z,93.91
2022-11-24T08:46:02.318Z,95.52
2022-11-24T08:48:25.924Z,95.17
2022-11-24T08:50:49.481Z,95.12
2022-11-24T08:53:13.015Z,94.29
2022-11-24T08:55:37.973Z,94.25
2022-11-24T08:58:01.534Z,93.14
2022-11-24T09:00:25.212Z,93.63
2022-11-24T09:02:56.112Z,94.16
2022-11-24T09:05:50.132Z,93.52
2022-11-24T09:08:03.252Z,93.70
2022-11-24T09:10:26.730Z,93.24
2022-11-24T09:12:52.204Z,92.64
2022-11-24T09:15:17.116Z,93.13
2022-11-24T09:17:40.872Z,93.22
2022-11-24T09:20:05.164Z,92.44
2022-11-24T09:22:28.735Z,93.61
2022-11-24T09:24:52.223Z,92.19
2022-11-24T09:27:15.854Z,93.66
2022-11-24T09:29:40.742Z,92.71
2022-11-24T09:32:06.940Z,93.05
2022-11-24T09:34:30.842Z,92.18
2022-11-24T09:36:54.427Z,91.07
2022-11-24T09:39:18.035Z,91.59
2022-11-24T09:41:55.690Z,91.46
2022-11-24T09:45:03.049Z,91.59
2022-11-24T09:47:43.095Z,91.55
2022-11-24T09:50:11.900Z,92.64
2022-11-24T09:52:41.927Z,92.04
2022-11-24T09:55:19.693Z,90.95
2022-11-24T09:57:45.379Z,92.05
2022-11-24T10:00:14.965Z,91.21
2022-11-24T10:02:38.552Z,90.39
2022-11-24T10:05:02.150Z,90.36
2022-11-24T10:07:32.513Z,89.42
2022-11-24T10:10:05.759Z,90.04
2022-11-24T10:12:49.024Z,89.70
2022-11-24T10:15:35.036Z,89.96
2022-11-24T10:18:35.147Z,89.59
2022-11-24T10:21:14.843Z,88.64
2022-11-24T10:24:09.931Z,90.39
2022-11-24T10:26:39.168Z,89.53
2022-11-24T10:29:14.975Z,89.85
2022-11-24T10:31:43.078Z,89.24
2022-11-24T10:34:16.491Z,88.66
2022-11-24T10:36:49.364Z,89.26
2022-11-24T10:39:21.748Z,88.83
2022-11-24T10:41:52.675Z,87.27
2022-11-24T10:44:16.369Z,86.32
2022-11-24T10:46:41.958Z,86.39
2022-11-24T10:49:06.949Z,85.58
2022-11-24T10:51:45.609Z,84.54
2022-11-24T10:54:17.559Z,86.72
2022-11-24T10:56:41.972Z,86.08
2022-11-24T10:59:29.349Z,85.41
2022-11-24T11:01:55.646Z,85.96
2022-11-24T11:04:22.503Z,86.08
2022-11-24T11:06:46.153Z,84.75
2022-11-24T11:09:22.221Z,84.63
2022-11-24T11:11:48.299Z,84.63
2022-11-24T11:14:13.010Z,85.15
2022-11-24T11:16:39.569Z,84.34
2022-11-24T11:19:33.006Z,84.80
2022-11-24T11:22:00.540Z,84.19
2022-11-24T11:24:24.149Z,85.11
2022-11-24T11:26:47.705Z,85.04
2022-11-24T11:34:53.627Z,82.90
2022-11-24T11:37:18.155Z,83.63
2022-11-24T11:39:48.681Z,83.09
2022-11-24T11:42:59.945Z,82.94
2022-11-24T11:45:14.484Z,82.78
2022-11-24T11:47:46.305Z,84.19
2022-11-24T11:50:18.648Z,84.37
2022-11-24T11:53:07.450Z,82.73
2022-11-24T11:55:51.362Z,82.82
2022-11-24T11:58:43.883Z,82.16
2022-11-24T12:01:19.605Z,82.76
2022-11-24T12:03:58.925Z,82.49
2022-11-24T12:06:43.219Z,82.48
2022-11-24T12:09:21.512Z,80.72
2022-11-24T12:11:53.349Z,82.54
2022-11-24T12:14:32.111Z,81.72
2022-11-24T12:17:07.099Z,82.27
2022-11-24T12:19:46.724Z,82.49
2022-11-24T12:22:21.997Z,80.10
2022-11-24T12:24:54.462Z,81.10
2022-11-24T12:27:29.883Z,81.25
2022-11-24T12:30:11.105Z,81.67
2022-11-24T12:33:00.194Z,81.45
2022-11-24T12:35:31.389Z,81.27
2022-11-24T12:38:11.116Z,80.79
2022-11-24T12:41:06.478Z,79.96
2022-11-24T12:43:38.354Z,80.61
2022-11-24T12:46:16.864Z,80.97
2022-11-24T12:48:53.983Z,80.69
2022-11-24T12:51:20.479Z,78.99
2022-11-24T12:53:47.346Z,81.04
2022-11-24T12:56:15.942Z,79.79
2022-11-24T12:58:50.372Z,81.43
2022-11-24T13:01:26.277Z,80.38
2022-11-24T13:04:09.002Z,79.97
2022-11-24T13:06:49.038Z,79.94
2022-11-24T13:09:15.767Z,80.03
2022-11-24T13:11:45.437Z,80.99
2022-11-24T13:14:19.887Z,79.77
2022-11-24T13:19:39.841Z,80.60
2022-11-24T13:22:16.612Z,80.02
2022-11-24T13:24:42.376Z,80.77
2022-11-24T13:27:45.149Z,79.73
2022-11-24T13:30:54.874Z,78.85
2022-11-24T13:33:39.827Z,81.14
2022-11-24T13:36:35.599Z,80.50
2022-11-24T13:38:59.866Z,80.00
2022-11-24T13:42:10.007Z,80.06
2022-11-24T13:44:55.537Z,80.61
2022-11-24T13:47:41.781Z,81.97
2022-11-24T13:50:08.578Z,81.82
2022-11-24T13:52:46.170Z,81.14
2022-11-24T13:55:29.075Z,81.13
2022-11-24T13:57:57.963Z,81.59
2022-11-24T14:00:25.212Z,80.76
2022-11-24T14:02:49.277Z,81.50
2022-11-24T14:05:15.609Z,80.72
2022-11-24T14:07:42.117Z,80.13
2022-11-24T14:10:07.507Z,80.07
2022-11-24T14:12:33.807Z,78.88
2022-11-24T14:15:24.504Z,80.65
2022-11-24T14:17:48.098Z,80.10
2022-11-24T14:20:24.245Z,80.86
2022-11-24T14:22:47.895Z,80.26
2022-11-24T14:25:25.969Z,80.89
2022-11-24T14:27:49.610Z,80.13
2022-11-24T14:30:23.083Z,79.90
2022-11-24T14:32:56.267Z,79.96
2022-11-24T14:35:25.860Z,80.06
2022-11-24T14:37:49.429Z,79.76
2022-11-24T14:40:42.084Z,79.11
2022-11-24T14:43:06.049Z,79.22
2022-11-24T14:45:31.011Z,78.74
2022-11-24T14:47:55.677Z,78.63
2022-11-24T14:50:24.262Z,80.06
2022-11-24T14:52:55.488Z,79.92
2022-11-24T14:55:28.772Z,79.40
2022-11-24T14:57:52.408Z,80.05
2022-11-24T15:00:20.959Z,80.90
2022-11-24T15:02:49.700Z,79.64
2022-11-24T15:05:13.672Z,79.75
2022-11-24T15:07:39.779Z,79.95
2022-11-24T15:10:05.996Z,80.02
2022-11-24T15:12:34.348Z,80.68
2022-11-24T15:15:02.280Z,80.45
2022-11-24T15:17:29.175Z,79.76
2022-11-24T15:19:59.703Z,80.26
2022-11-24T15:22:40.728Z,80.32
2022-11-24T15:25:25.602Z,80.98
2022-11-24T15:27:49.222Z,81.18
2022-11-24T15:30:14.597Z,81.40
2022-11-24T15:32:38.159Z,81.36
2022-11-24T15:35:03.072Z,80.40
2022-11-24T15:37:30.050Z,81.84
2022-11-24T15:39:57.528Z,81.58
2022-11-24T15:42:21.102Z,81.43
2022-11-24T15:44:44.725Z,82.39
2022-11-24T15:47:09.249Z,81.60
2022-11-24T15:49:32.903Z,81.56
2022-11-24T15:51:57.889Z,81.45
2022-11-24T15:54:21.535Z,81.73
2022-11-24T15:56:45.139Z,84.01
2022-11-24T15:59:18.757Z,84.01
2022-11-24T16:01:46.297Z,83.13
2022-11-24T16:04:12.400Z,83.61
2022-11-24T16:06:36.102Z,82.53
2022-11-24T16:09:01.514Z,83.06
2022-11-24T16:11:25.311Z,82.67
2022-11-24T16:13:53.065Z,82.53
2022-11-24T16:16:17.527Z,82.23
2022-11-24T16:18:41.711Z,82.74
2022-11-24T16:21:05.399Z,81.73
2022-11-24T16:23:28.923Z,83.55
2022-11-24T16:25:54.273Z,82.36
2022-11-24T16:28:17.947Z,82.54
2022-11-24T16:30:41.557Z,82.73
2022-11-24T16:33:05.701Z,83.06
2022-11-24T16:35:29.345Z,82.48
2022-11-24T16:37:52.966Z,83.20
2022-11-24T16:40:18.209Z,82.47
2022-11-24T16:42:43.203Z,82.71
2022-11-24T16:45:08.065Z,82.94
2022-11-24T16:47:31.562Z,83.21
2022-11-24T16:49:55.105Z,83.31
2022-11-24T16:52:19.270Z,83.17
2022-11-24T16:54:42.970Z,83.17
2022-11-24T16:57:11.705Z,84.01
2022-11-24T16:59:40.044Z,83.67
2022-11-24T17:02:03.571Z,83.06
2022-11-24T17:04:27.363Z,83.61
2022-11-24T17:06:50.995Z,83.85
2022-11-24T17:09:14.632Z,84.04
2022-11-24T17:11:38.156Z,84.36
2022-11-24T17:14:03.025Z,83.51
2022-11-24T17:16:28.480Z,84.29
2022-11-24T17:18:52.991Z,85.52
2022-11-24T17:21:18.739Z,86.01
2022-11-24T17:23:42.402Z,85.34
2022-11-24T17:26:08.606Z,85.05
2022-11-24T17:28:32.310Z,84.95
2022-11-24T17:30:55.871Z,84.27
2022-11-24T17:33:20.787Z,83.53
2022-11-24T17:35:44.313Z,84.07
2022-11-24T17:38:07.853Z,83.73
2022-11-24T17:40:31.536Z,83.70
2022-11-24T17:42:55.164Z,83.72
2022-11-24T17:45:18.675Z,84.28
2022-11-24T17:47:42.379Z,83.92
2022-11-24T17:50:09.124Z,85.13
2022-11-24T17:52:32.658Z,85.48
2022-11-24T17:54:56.160Z,84.29
2022-11-24T17:57:19.751Z,84.27
2022-11-24T17:59:43.859Z,84.39
2022-11-24T18:02:07.868Z,84.33
2022-11-24T18:04:31.511Z,83.87
2022-11-24T18:06:56.491Z,83.97
2022-11-24T18:09:19.980Z,85.47
2022-11-24T18:11:43.741Z,85.20
2022-11-24T18:14:07.268Z,85.05
2022-11-24T18:16:32.416Z,84.08
2022-11-24T18:19:07.779Z,85.49
2022-11-24T18:21:32.182Z,85.91
2022-11-24T18:23:57.213Z,85.26
2022-11-24T18:26:21.228Z,84.97
2022-11-24T18:28:45.956Z,85.35
2022-11-24T18:31:13.099Z,85.20
2022-11-24T18:33:38.598Z,84.57
2022-11-24T18:36:05.078Z,85.80
2022-11-24T18:38:29.656Z,86.83
2022-11-24T18:41:00.525Z,86.39
2022-11-24T18:43:24.955Z,85.79
2022-11-24T18:45:48.491Z,84.87
2022-11-24T18:48:12.139Z,84.06
2022-11-24T18:50:36.372Z,85.54
2022-11-24T18:52:59.907Z,85.61
2022-11-24T18:55:23.438Z,84.21
2022-11-24T18:57:48.394Z,84.08
2022-11-24T19:00:14.090Z,85.14
2022-11-24T19:02:37.720Z,84.76
2022-11-24T19:05:01.440Z,84.46
2022-11-24T19:07:25.031Z,85.10
2022-11-24T19:09:48.672Z,84.50
2022-11-24T19:12:12.357Z,84.79
2022-11-24T19:14:37.425Z,84.40
2022-11-24T19:17:02.910Z,85.69
2022-11-24T19:19:26.537Z,85.16
2022-11-24T19:21:50.096Z,85.37
2022-11-24T19:24:14.231Z,85.83
2022-11-24T19:26:38.858Z,85.12
2022-11-24T19:29:02.345Z,85.51
2022-11-24T19:31:27.500Z,85.57
2022-11-24T19:33:52.886Z,85.58
2022-11-24T19:36:19.271Z,85.68
2022-11-24T19:38:43.845Z,85.38
2022-11-24T19:41:09.884Z,85.37
2022-11-24T19:43:34.268Z,85.64
2022-11-24T19:46:02.546Z,86.20
2022-11-24T19:48:27.512Z,85.43
2022-11-24T19:50:51.094Z,86.42
2022-11-24T19:53:14.615Z,86.23
2022-11-24T19:55:38.188Z,85.56
2022-11-24T19:58:01.660Z,85.58
2022-11-24T20:00:30.613Z,86.29
2022-11-24T20:02:55.476Z,85.78
2022-11-24T20:05:20.413Z,85.85
2022-11-24T20:07:44.017Z,85.88
2022-11-24T20:10:09.544Z,85.91
2022-11-24T20:12:34.535Z,86.32
2022-11-24T20:14:58.113Z,86.20
2022-11-24T20:17:21.742Z,86.76
2022-11-24T20:19:45.260Z,86.41
2022-11-24T20:22:10.229Z,86.54
2022-11-24T20:24:33.860Z,86.71
2022-11-24T20:27:00.162Z,86.88
2022-11-24T20:29:23.902Z,86.16
2022-11-24T20:31:50.637Z,86.46
2022-11-24T20:34:15.710Z,86.40
2022-11-24T20:36:41.448Z,86.89
2022-11-24T20:39:09.317Z,86.59
2022-11-24T20:41:35.649Z,86.81
2022-11-24T20:44:01.673Z,86.34
2022-11-24T20:46:28.437Z,86.24
2022-11-24T20:48:52.909Z,86.58
2022-11-24T20:51:21.452Z,86.75
2022-11-24T20:53:45.315Z,86.84
2022-11-24T20:56:13.079Z,86.73
2022-11-24T20:58:38.242Z,86.65
2022-11-24T21:01:06.230Z,87.06
2022-11-24T21:03:29.893Z,87.01
2022-11-24T21:05:56.692Z,87.12
2022-11-24T21:08:20.204Z,86.17
2022-11-24T21:10:43.757Z,86.73
2022-11-24T21:13:08.695Z,86.92
2022-11-24T21:15:32.241Z,86.64
2022-11-24T21:17:55.741Z,86.24
2022-11-24T21:20:19.369Z,86.41
2022-11-24T21:22:42.844Z,87.43
2022-11-24T21:25:07.345Z,86.84
2022-11-24T21:27:30.875Z,86.91
2022-11-24T21:29:55.865Z,86.92
2022-11-24T21:32:19.430Z,87.28
2022-11-24T21:34:43.034Z,86.82
2022-11-24T21:37:07.111Z,85.62
2022-11-24T21:39:30.754Z,86.18
2022-11-24T21:41:54.293Z,86.57
2022-11-24T21:44:18.015Z,87.10
2022-11-24T21:46:48.074Z,86.92
2022-11-24T21:49:14.704Z,87.08
2022-11-24T21:51:38.276Z,87.05
2022-11-24T21:54:01.865Z,86.60
2022-11-24T21:56:25.921Z,85.91
2022-11-24T21:58:51.929Z,86.83
2022-11-24T22:01:16.746Z,87.28
2022-11-24T22:03:41.793Z,87.24
2022-11-24T22:06:05.661Z,87.70
2022-11-24T22:08:31.122Z,87.53
2022-11-24T22:10:55.751Z,88.08
2022-11-24T22:13:19.533Z,88.44
2022-11-24T22:15:43.227Z,88.22
2022-11-24T22:18:06.978Z,87.55
2022-11-24T22:20:32.075Z,89.78
2022-11-24T22:22:55.659Z,90.32
2022-11-24T22:25:19.159Z,90.13
2022-11-24T22:27:42.937Z,89.15
2022-11-24T22:30:08.402Z,90.22
2022-11-24T22:32:31.954Z,88.70
2022-11-24T22:34:55.474Z,89.37
2022-11-24T22:37:20.486Z,89.87
2022-11-24T22:39:44.049Z,90.03
2022-11-24T22:42:07.667Z,89.73
2022-11-24T22:44:31.203Z,88.89
2022-11-24T22:46:54.743Z,89.38
2022-11-24T22:49:18.259Z,89.70
2022-11-24T22:51:41.822Z,91.13
2022-11-24T22:54:07.383Z,90.75
2022-11-24T22:56:32.421Z,90.45
2022-11-24T22:58:56.144Z,90.39
2022-11-24T23:01:22.298Z,89.29
2022-11-24T23:03:46.434Z,89.68
2022-11-24T23:06:13.776Z,90.24
2022-11-24T23:08:37.909Z,92.23
2022-11-24T23:11:05.309Z,92.13
2022-11-24T23:13:29.109Z,91.29
2022-11-24T23:15:52.750Z,89.86
2022-11-24T23:18:16.239Z,90.28
2022-11-24T23:20:39.843Z,90.71
2022-11-24T23:23:03.339Z,89.94
2022-11-24T23:25:26.985Z,90.64
2022-11-24T23:27:51.940Z,90.67
2022-11-24T23:30:15.870Z,91.58
2022-11-24T23:32:40.168Z,91.13
2022-11-24T23:35:03.731Z,91.82
2022-11-24T23:37:45.704Z,91.52
2022-11-24T23:40:11.380Z,90.60
2022-11-24T23:42:34.914Z,90.55
2022-11-24T23:44:59.892Z,90.19
2022-11-24T23:47:23.628Z,91.15
2022-11-24T23:49:47.185Z,90.27
2022-11-24T23:52:10.728Z,89.73
2022-11-24T23:54:34.571Z,89.70
2022-11-24T23:56:58.239Z,89.59
2022-11-24T23:59:22.848Z,90.93
